createdAt,value
2023-01-18T00:00:52.389Z,67.92
2023-01-18T00:03:20.105Z,67.03
2023-01-18T00:05:47.575Z,67.02
2023-01-18T00:08:18.981Z,66.29
2023-01-18T00:10:47.252Z,65.98
2023-01-18T00:13:14.809Z,67.25
2023-01-18T00:15:42.334Z,67.52
2023-01-18T00:18:10.469Z,67.10
2023-01-18T00:20:38.299Z,67.44
2023-01-18T00:23:05.914Z,66.59
2023-01-18T00:25:33.729Z,67.66
2023-01-18T00:28:01.305Z,67.55
2023-01-18T00:30:29.889Z,67.97
2023-01-18T00:32:59.449Z,67.62
2023-01-18T00:35:27.208Z,68.12
2023-01-18T00:37:54.679Z,67.43
2023-01-18T00:40:23.163Z,67.22
2023-01-18T00:43:09.420Z,67.17
2023-01-18T00:45:37.724Z,66.46
2023-01-18T00:48:05.508Z,66.58
2023-01-18T00:50:33.125Z,68.13
2023-01-18T00:53:00.887Z,67.00
2023-01-18T00:55:28.467Z,68.23
2023-01-18T00:57:55.884Z,68.42
2023-01-18T01:00:26.963Z,68.84
2023-01-18T01:02:55.044Z,69.96
2023-01-18T01:05:43.155Z,71.54
2023-01-18T01:08:17.031Z,69.82
2023-01-18T01:10:48.213Z,68.68
2023-01-18T01:13:38.409Z,69.46
2023-01-18T01:16:29.694Z,68.01
2023-01-18T01:19:16.963Z,67.86
2023-01-18T01:22:03.286Z,67.69
2023-01-18T01:24:49.763Z,67.62
2023-01-18T01:27:17.716Z,67.88
2023-01-18T01:29:45.587Z,68.27
2023-01-18T01:32:13.450Z,68.49
2023-01-18T01:34:40.890Z,67.16
2023-01-18T01:37:08.685Z,67.43
2023-01-18T01:39:36.716Z,67.96
2023-01-18T01:42:04.396Z,67.84
2023-01-18T01:44:34.591Z,69.11
2023-01-18T01:47:17.759Z,69.71
2023-01-18T01:49:48.394Z,71.84
2023-01-18T01:52:19.447Z,71.27
2023-01-18T01:54:57.484Z,72.15
2023-01-18T01:57:31.225Z,70.44
2023-01-18T02:00:10.355Z,70.98
2023-01-18T02:02:40.080Z,71.03
2023-01-18T02:05:09.793Z,70.62
2023-01-18T02:07:37.378Z,70.21
2023-01-18T02:10:06.352Z,69.66
2023-01-18T02:12:35.550Z,70.62
2023-01-18T02:15:03.625Z,70.26
2023-01-18T02:17:59.151Z,70.98
2023-01-18T02:20:44.388Z,71.66
2023-01-18T02:23:46.503Z,71.65
2023-01-18T02:26:36.167Z,71.00
2023-01-18T02:29:06.623Z,71.95
2023-01-18T02:31:40.055Z,71.87
2023-01-18T02:34:16.777Z,71.53
2023-01-18T02:37:22.763Z,71.23
2023-01-18T02:39:50.043Z,71.14
2023-01-18T02:42:38.958Z,69.56
2023-01-18T02:45:39.700Z,68.55
2023-01-18T02:48:08.503Z,67.96
2023-01-18T02:50:36.349Z,71.31
2023-01-18T02:53:03.988Z,69.78
2023-01-18T02:55:51.580Z,69.98
2023-01-18T02:58:24.963Z,69.03
2023-01-18T03:00:57.919Z,71.52
2023-01-18T03:03:26.250Z,70.23
2023-01-18T03:05:58.723Z,69.42
2023-01-18T03:08:39.032Z,69.99
2023-01-18T03:11:11.215Z,69.58
2023-01-18T03:14:03.335Z,70.20
2023-01-18T03:16:59.243Z,69.57
2023-01-18T03:20:05.531Z,69.49
2023-01-18T03:23:06.895Z,67.97
2023-01-18T03:25:36.864Z,68.23
2023-01-18T03:29:06.837Z,69.27
2023-01-18T03:32:02.478Z,69.02
2023-01-18T03:34:34.279Z,67.66
2023-01-18T03:37:04.331Z,66.68
2023-01-18T03:39:37.234Z,67.08
2023-01-18T03:42:10.048Z,67.61
2023-01-18T03:44:41.683Z,67.80
2023-01-18T03:47:09.333Z,67.97
2023-01-18T03:49:37.116Z,67.67
2023-01-18T03:52:13.360Z,68.42
2023-01-18T03:54:50.200Z,68.29
2023-01-18T03:57:24.359Z,67.90
2023-01-18T03:59:51.930Z,66.96
2023-01-18T04:02:20.786Z,66.53
2023-01-18T04:04:48.771Z,67.45
2023-01-18T04:07:16.097Z,67.62
2023-01-18T04:09:44.014Z,66.86
2023-01-18T04:12:12.215Z,66.00
2023-01-18T04:14:39.858Z,67.15
2023-01-18T04:17:07.317Z,65.51
2023-01-18T04:19:35.124Z,65.13
2023-01-18T04:22:02.676Z,66.43
2023-01-18T04:24:30.283Z,65.99
2023-01-18T04:26:58.220Z,67.19
2023-01-18T04:29:25.831Z,66.78
2023-01-18T04:31:53.301Z,67.38
2023-01-18T04:34:23.939Z,67.27
2023-01-18T04:36:51.815Z,67.36
2023-01-18T04:39:19.598Z,68.03
2023-01-18T04:41:47.509Z,68.06
2023-01-18T04:44:15.337Z,68.39
2023-01-18T04:46:43.396Z,68.06
2023-01-18T04:49:15.367Z,67.85
2023-01-18T04:51:43.986Z,67.30
2023-01-18T04:54:14.556Z,67.56
2023-01-18T04:56:42.144Z,67.61
2023-01-18T04:59:14.561Z,67.31
2023-01-18T05:01:42.451Z,66.61
2023-01-18T05:04:11.223Z,67.17
2023-01-18T05:06:38.878Z,67.34
2023-01-18T05:09:06.601Z,67.45
2023-01-18T05:11:34.152Z,67.00
2023-01-18T05:14:01.571Z,67.62
2023-01-18T05:16:29.467Z,68.06
2023-01-18T05:18:57.210Z,67.03
2023-01-18T05:21:24.736Z,67.63
2023-01-18T05:23:52.866Z,66.68
2023-01-18T05:26:22.600Z,66.09
2023-01-18T05:28:50.717Z,67.57
2023-01-18T05:31:21.222Z,67.54
2023-01-18T05:33:49.629Z,66.55
2023-01-18T05:36:17.593Z,65.98
2023-01-18T05:38:46.660Z,66.24
2023-01-18T05:41:14.241Z,66.81
2023-01-18T05:43:42.242Z,67.58
2023-01-18T05:46:09.928Z,67.00
2023-01-18T05:48:37.580Z,66.88
2023-01-18T05:51:09.389Z,67.33
2023-01-18T05:53:37.546Z,66.27
2023-01-18T05:56:06.760Z,66.29
2023-01-18T05:58:35.463Z,68.44
2023-01-18T06:01:03.429Z,67.52
2023-01-18T06:03:31.161Z,66.69
2023-01-18T06:05:59.212Z,66.82
2023-01-18T06:08:27.252Z,66.45
2023-01-18T06:10:56.199Z,67.10
2023-01-18T06:13:24.616Z,67.57
2023-01-18T06:15:54.628Z,67.51
2023-01-18T06:18:24.128Z,67.06
2023-01-18T06:20:59.096Z,65.77
2023-01-18T06:23:29.255Z,66.68
2023-01-18T06:25:56.674Z,65.80
2023-01-18T06:28:24.455Z,66.53
2023-01-18T06:30:53.255Z,67.07
2023-01-18T06:33:21.417Z,65.86
2023-01-18T06:35:49.039Z,64.07
2023-01-18T06:38:16.993Z,63.31
2023-01-18T06:40:44.412Z,67.03
2023-01-18T06:43:14.339Z,67.92
2023-01-18T06:45:42.369Z,67.39
2023-01-18T06:48:09.771Z,67.02
2023-01-18T06:50:37.258Z,67.26
2023-01-18T06:53:05.196Z,67.01
2023-01-18T06:55:34.791Z,66.49
2023-01-18T06:58:02.688Z,65.99
2023-01-18T07:00:30.521Z,66.48
2023-01-18T07:02:58.662Z,66.41
2023-01-18T07:05:26.345Z,65.26
2023-01-18T07:07:54.253Z,64.68
2023-01-18T07:10:21.784Z,65.61
2023-01-18T07:12:50.932Z,66.21
2023-01-18T07:15:22.900Z,66.24
2023-01-18T07:17:50.934Z,66.77
2023-01-18T07:20:19.927Z,65.75
2023-01-18T07:22:52.752Z,65.70
2023-01-18T07:25:20.841Z,66.47
2023-01-18T07:27:49.204Z,65.44
2023-01-18T07:30:17.843Z,65.18
2023-01-18T07:32:50.570Z,65.97
2023-01-18T07:35:22.110Z,66.28
2023-01-18T07:37:52.278Z,65.78
2023-01-18T07:40:21.341Z,65.84
2023-01-18T07:42:49.370Z,65.95
2023-01-18T07:45:17.320Z,66.38
2023-01-18T07:47:46.255Z,66.22
2023-01-18T07:50:16.810Z,66.08
2023-01-18T07:52:44.513Z,66.28
2023-01-18T07:55:12.044Z,66.14
2023-01-18T07:57:39.510Z,66.35
2023-01-18T08:00:08.190Z,65.38
2023-01-18T08:02:40.015Z,64.71
2023-01-18T08:05:10.663Z,65.42
2023-01-18T08:07:38.261Z,66.15
2023-01-18T08:10:05.858Z,65.80
2023-01-18T08:12:33.768Z,65.42
2023-01-18T08:15:01.288Z,66.58
2023-01-18T08:17:29.804Z,66.43
2023-01-18T08:19:57.558Z,66.03
2023-01-18T08:22:25.175Z,66.82
2023-01-18T08:24:52.809Z,65.70
2023-01-18T08:27:20.687Z,66.54
2023-01-18T08:29:48.431Z,66.79
2023-01-18T08:32:16.011Z,66.67
2023-01-18T08:34:43.753Z,66.33
2023-01-18T08:37:11.878Z,66.79
2023-01-18T08:39:39.394Z,68.25
2023-01-18T08:42:07.311Z,67.20
2023-01-18T08:44:34.909Z,67.36
2023-01-18T08:47:03.390Z,67.33
2023-01-18T08:49:32.788Z,66.35
2023-01-18T08:52:00.706Z,66.27
2023-01-18T08:54:28.120Z,65.73
2023-01-18T08:56:55.814Z,66.34
2023-01-18T08:59:23.945Z,64.85
2023-01-18T09:01:51.608Z,64.94
2023-01-18T09:04:19.468Z,65.21
2023-01-18T09:06:50.306Z,65.24
2023-01-18T09:09:17.658Z,65.00
2023-01-18T09:11:45.433Z,64.77
2023-01-18T09:14:12.950Z,64.30
2023-01-18T09:16:40.534Z,65.14
2023-01-18T09:19:08.476Z,64.73
2023-01-18T09:21:36.032Z,64.20
2023-01-18T09:24:03.974Z,66.01
2023-01-18T09:26:31.882Z,65.62
2023-01-18T09:28:59.365Z,66.78
2023-01-18T09:31:28.289Z,65.13
2023-01-18T09:34:12.990Z,65.12
2023-01-18T09:36:44.726Z,66.78
2023-01-18T09:39:12.493Z,65.26
2023-01-18T09:41:43.191Z,65.19
2023-01-18T09:44:17.794Z,65.75
2023-01-18T09:46:51.844Z,66.65
2023-01-18T09:49:29.073Z,66.19
2023-01-18T09:52:13.147Z,67.42
2023-01-18T09:54:51.507Z,65.78
2023-01-18T09:57:31.335Z,66.86
2023-01-18T10:00:00.172Z,65.69
2023-01-18T10:02:39.171Z,66.14
2023-01-18T10:05:23.304Z,65.50
2023-01-18T10:08:02.539Z,66.79
2023-01-18T10:10:39.962Z,65.91
2023-01-18T10:13:35.467Z,66.91
2023-01-18T10:16:08.311Z,67.08
2023-01-18T10:18:45.635Z,66.76
2023-01-18T10:21:23.146Z,66.54
2023-01-18T10:24:21.784Z,66.32
2023-01-18T10:26:53.749Z,64.84
2023-01-18T10:29:25.342Z,64.75
2023-01-18T10:32:01.843Z,63.44
2023-01-18T10:34:35.145Z,64.26
2023-01-18T10:37:14.457Z,63.32
2023-01-18T10:40:03.432Z,60.63
2023-01-18T10:42:45.433Z,61.18
2023-01-18T10:45:20.396Z,60.53
2023-01-18T10:47:49.158Z,62.28
2023-01-18T10:50:38.322Z,61.43
2023-01-18T10:53:25.280Z,59.88
2023-01-18T10:55:59.402Z,60.49
2023-01-18T10:58:30.745Z,60.90
2023-01-18T11:01:00.521Z,60.40
2023-01-18T11:03:29.042Z,59.73
2023-01-18T11:06:07.199Z,60.52
2023-01-18T11:08:35.922Z,60.07
2023-01-18T11:11:20.019Z,60.91
2023-01-18T11:13:52.863Z,60.47
2023-01-18T11:16:22.540Z,59.67
2023-01-18T11:18:59.379Z,60.38
2023-01-18T11:21:33.241Z,61.09
2023-01-18T11:24:07.727Z,60.35
2023-01-18T11:26:35.591Z,61.13
2023-01-18T11:29:06.219Z,59.99
2023-01-18T11:31:46.193Z,58.55
2023-01-18T11:34:23.371Z,57.14
2023-01-18T11:36:51.282Z,58.42
2023-01-18T11:39:29.120Z,58.22
2023-01-18T11:42:32.469Z,57.62
2023-01-18T11:45:16.255Z,56.05
2023-01-18T11:47:51.681Z,56.76
2023-01-18T11:50:47.248Z,55.80
2023-01-18T11:53:33.449Z,56.47
2023-01-18T11:56:07.551Z,56.97
2023-01-18T11:58:36.005Z,57.21
2023-01-18T12:01:22.761Z,57.84
2023-01-18T12:03:58.821Z,57.75
2023-01-18T12:06:36.256Z,56.83
2023-01-18T12:09:14.487Z,57.66
2023-01-18T12:11:58.025Z,57.37
2023-01-18T12:15:11.230Z,57.31
2023-01-18T12:18:27.531Z,56.72
2023-01-18T12:21:21.061Z,55.93
2023-01-18T12:23:54.825Z,56.02
2023-01-18T12:26:22.654Z,57.21
2023-01-18T12:28:57.747Z,57.20
2023-01-18T12:31:44.196Z,57.49
2023-01-18T12:34:25.077Z,56.57
2023-01-18T12:36:55.933Z,55.86
2023-01-18T12:39:55.653Z,55.39
2023-01-18T12:42:28.585Z,55.89
2023-01-18T12:45:07.717Z,55.17
2023-01-18T12:47:47.870Z,54.32
2023-01-18T12:50:27.771Z,54.11
2023-01-18T12:53:01.118Z,52.98
2023-01-18T12:55:31.843Z,55.30
2023-01-18T12:58:00.641Z,54.12
2023-01-18T13:00:38.332Z,53.53
2023-01-18T13:03:13.835Z,54.48
2023-01-18T13:05:52.613Z,53.89
2023-01-18T13:08:50.172Z,54.64
2023-01-18T13:11:36.366Z,56.05
2023-01-18T13:14:25.685Z,54.87
2023-01-18T13:17:19.344Z,54.79
2023-01-18T13:19:55.030Z,55.63
2023-01-18T13:22:44.384Z,55.79
2023-01-18T13:25:29.360Z,55.57
2023-01-18T13:28:01.074Z,56.97
2023-01-18T13:30:32.611Z,57.96
2023-01-18T13:33:00.730Z,57.19
2023-01-18T13:35:33.495Z,57.08
2023-01-18T13:38:12.116Z,57.52
2023-01-18T13:40:51.904Z,59.16
2023-01-18T13:43:38.154Z,60.30
2023-01-18T13:46:08.586Z,59.79
2023-01-18T13:48:54.500Z,60.68
2023-01-18T13:51:40.690Z,60.00
2023-01-18T13:54:29.873Z,60.07
2023-01-18T13:57:04.557Z,60.50
2023-01-18T13:59:37.505Z,61.83
2023-01-18T14:02:17.683Z,61.14
2023-01-18T14:04:45.615Z,60.96
2023-01-18T14:07:22.911Z,61.24
2023-01-18T14:09:51.426Z,61.66
2023-01-18T14:12:48.566Z,61.43
2023-01-18T14:15:41.965Z,62.02
2023-01-18T14:18:15.469Z,62.07
2023-01-18T14:20:52.215Z,62.45
2023-01-18T14:23:48.675Z,62.64
2023-01-18T14:26:17.416Z,63.26
2023-01-18T14:28:53.044Z,62.40
2023-01-18T14:31:28.100Z,62.09
2023-01-18T14:33:55.612Z,61.60
2023-01-18T14:36:26.502Z,61.57
2023-01-18T14:39:13.461Z,61.02
2023-01-18T14:41:43.682Z,60.76
2023-01-18T14:44:23.329Z,60.88
2023-01-18T14:46:56.696Z,60.51
2023-01-18T14:49:35.155Z,60.51
2023-01-18T14:52:13.421Z,59.96
2023-01-18T14:54:53.764Z,59.56
2023-01-18T14:57:36.795Z,59.96
2023-01-18T15:00:16.801Z,59.70
2023-01-18T15:02:46.652Z,59.31
2023-01-18T15:05:22.941Z,59.69
2023-01-18T15:07:56.268Z,59.18
2023-01-18T15:10:37.848Z,58.88
2023-01-18T15:13:16.506Z,59.02
2023-01-18T15:15:44.672Z,59.51
2023-01-18T15:18:20.560Z,59.94
2023-01-18T15:21:04.591Z,59.97
2023-01-18T15:23:41.676Z,60.14
2023-01-18T15:26:13.317Z,60.18
2023-01-18T15:28:46.314Z,60.50
2023-01-18T15:31:23.627Z,59.94
2023-01-18T15:33:54.452Z,60.46
2023-01-18T15:36:23.277Z,60.19
2023-01-18T15:38:54.037Z,61.07
2023-01-18T15:41:21.912Z,60.83
2023-01-18T15:43:49.469Z,61.75
2023-01-18T15:46:17.652Z,61.87
2023-01-18T15:48:53.817Z,61.96
2023-01-18T15:51:22.745Z,61.99
2023-01-18T15:53:56.309Z,60.21
2023-01-18T15:56:26.841Z,60.56
2023-01-18T15:58:56.177Z,60.40
2023-01-18T16:01:28.211Z,61.10
2023-01-18T16:04:22.228Z,61.49
2023-01-18T16:06:49.873Z,62.66
2023-01-18T16:09:20.897Z,63.69
2023-01-18T16:11:54.589Z,63.76
2023-01-18T16:14:28.998Z,63.96
2023-01-18T16:17:06.056Z,64.09
2023-01-18T16:19:41.825Z,64.15
2023-01-18T16:22:37.241Z,63.94
2023-01-18T16:25:16.962Z,64.03
2023-01-18T16:27:53.262Z,64.07
2023-01-18T16:30:35.297Z,64.38
2023-01-18T16:33:10.084Z,63.95
2023-01-18T16:35:39.945Z,64.20
2023-01-18T16:38:15.683Z,63.82
2023-01-18T16:40:45.121Z,64.11
2023-01-18T16:43:18.963Z,64.04
2023-01-18T16:45:49.457Z,64.25
2023-01-18T16:48:28.101Z,63.04
2023-01-18T16:50:56.648Z,63.67
2023-01-18T16:53:24.155Z,63.82
2023-01-18T16:55:51.815Z,64.15
2023-01-18T16:58:21.240Z,64.18
2023-01-18T17:00:51.551Z,64.25
2023-01-18T17:03:19.447Z,64.49
2023-01-18T17:05:47.039Z,64.65
2023-01-18T17:08:15.778Z,65.15
2023-01-18T17:10:46.428Z,65.44
2023-01-18T17:13:13.849Z,65.15
2023-01-18T17:15:45.530Z,64.60
2023-01-18T17:18:15.540Z,64.72
2023-01-18T17:20:43.610Z,64.74
2023-01-18T17:23:11.427Z,65.39
2023-01-18T17:25:39.302Z,65.79
2023-01-18T17:28:07.022Z,66.19
2023-01-18T17:30:34.993Z,66.29
2023-01-18T17:33:03.179Z,65.72
2023-01-18T17:35:32.095Z,65.60
2023-01-18T17:38:06.176Z,65.56
2023-01-18T17:40:43.826Z,65.10
2023-01-18T17:43:28.578Z,65.39
2023-01-18T17:46:03.214Z,65.59
2023-01-18T17:48:30.648Z,65.53
2023-01-18T17:50:58.735Z,65.59
2023-01-18T17:53:27.098Z,65.73
2023-01-18T17:55:55.203Z,65.70
2023-01-18T17:58:22.817Z,66.31
2023-01-18T18:00:51.194Z,66.42
2023-01-18T18:03:20.208Z,66.04
2023-01-18T18:05:48.220Z,66.02
2023-01-18T18:08:18.059Z,66.14
2023-01-18T18:10:45.929Z,66.62
2023-01-18T18:13:13.462Z,66.60
2023-01-18T18:15:45.983Z,66.72
2023-01-18T18:18:22.747Z,67.20
2023-01-18T18:21:02.488Z,66.63
2023-01-18T18:23:30.910Z,66.83
2023-01-18T18:25:59.335Z,67.14
2023-01-18T18:28:29.531Z,66.83
2023-01-18T18:30:58.441Z,67.04
2023-01-18T18:33:26.947Z,67.04
2023-01-18T18:35:54.644Z,66.90
2023-01-18T18:38:23.159Z,66.50
2023-01-18T18:40:51.465Z,66.82
2023-01-18T18:43:19.168Z,66.17
2023-01-18T18:45:47.604Z,66.98
2023-01-18T18:48:15.106Z,66.34
2023-01-18T18:50:42.692Z,65.62
2023-01-18T18:53:10.458Z,64.95
2023-01-18T18:55:38.093Z,64.91
2023-01-18T18:58:07.073Z,64.92
2023-01-18T19:00:35.184Z,65.63
2023-01-18T19:03:04.696Z,65.86
2023-01-18T19:05:33.730Z,66.39
2023-01-18T19:08:01.897Z,67.08
2023-01-18T19:10:30.387Z,67.44
2023-01-18T19:12:58.709Z,67.03
2023-01-18T19:15:27.028Z,66.73
2023-01-18T19:18:01.272Z,66.59
2023-01-18T19:20:29.084Z,68.08
2023-01-18T19:22:56.905Z,68.69
2023-01-18T19:25:27.313Z,68.47
2023-01-18T19:27:56.426Z,67.73
2023-01-18T19:30:29.509Z,67.52
2023-01-18T19:32:59.861Z,67.84
2023-01-18T19:35:27.366Z,68.71
2023-01-18T19:37:55.333Z,67.89
2023-01-18T19:40:24.688Z,68.73
2023-01-18T19:42:55.974Z,68.19
2023-01-18T19:45:28.359Z,67.46
2023-01-18T19:47:57.769Z,68.28
2023-01-18T19:50:26.844Z,68.45
2023-01-18T19:52:54.445Z,68.61
2023-01-18T19:55:22.922Z,68.59
2023-01-18T19:57:52.378Z,68.24
2023-01-18T20:00:20.411Z,67.97
2023-01-18T20:02:48.689Z,67.97
2023-01-18T20:05:17.321Z,68.81
2023-01-18T20:07:45.079Z,69.14
2023-01-18T20:10:13.044Z,69.50
2023-01-18T20:12:42.974Z,70.00
2023-01-18T20:15:10.600Z,70.03
2023-01-18T20:17:38.396Z,70.36
2023-01-18T20:20:06.514Z,69.52
2023-01-18T20:22:33.955Z,68.50
2023-01-18T20:25:01.772Z,68.75
2023-01-18T20:27:29.502Z,70.11
2023-01-18T20:29:58.326Z,70.26
2023-01-18T20:32:26.400Z,70.70
2023-01-18T20:34:53.978Z,72.38
2023-01-18T20:37:21.481Z,71.75
2023-01-18T20:39:50.409Z,73.28
2023-01-18T20:42:18.115Z,74.47
2023-01-18T20:44:49.259Z,73.79
2023-01-18T20:47:17.200Z,73.34
2023-01-18T20:49:45.458Z,72.19
2023-01-18T20:52:13.072Z,71.50
2023-01-18T20:54:40.880Z,71.23
2023-01-18T20:57:08.622Z,72.01
2023-01-18T20:59:36.136Z,71.80
2023-01-18T21:02:05.219Z,70.44
2023-01-18T21:04:32.884Z,71.27
2023-01-18T21:07:00.536Z,71.53
2023-01-18T21:09:28.288Z,71.80
2023-01-18T21:11:55.915Z,70.48
2023-01-18T21:14:23.670Z,71.13
2023-01-18T21:16:51.451Z,71.66
2023-01-18T21:19:19.125Z,72.15
2023-01-18T21:21:46.697Z,71.46
2023-01-18T21:24:14.523Z,71.86
2023-01-18T21:26:42.193Z,73.19
2023-01-18T21:29:09.713Z,71.87
2023-01-18T21:31:39.986Z,70.81
2023-01-18T21:34:07.776Z,70.66
2023-01-18T21:36:35.716Z,71.29
2023-01-18T21:39:04.622Z,71.66
2023-01-18T21:41:50.574Z,72.59
2023-01-18T21:44:37.068Z,72.29
2023-01-18T21:47:04.593Z,72.34
2023-01-18T21:50:16.613Z,72.36
2023-01-18T21:52:57.180Z,72.67
2023-01-18T21:55:25.329Z,71.78
2023-01-18T21:58:11.359Z,71.13
2023-01-18T22:00:39.932Z,71.34
2023-01-18T22:03:09.810Z,70.53
2023-01-18T22:05:39.889Z,69.74
2023-01-18T22:08:09.910Z,70.81
2023-01-18T22:10:37.518Z,70.50
2023-01-18T22:13:05.121Z,70.22
2023-01-18T22:15:32.805Z,69.74
2023-01-18T22:18:00.791Z,71.97
2023-01-18T22:20:30.326Z,70.39
2023-01-18T22:22:58.626Z,71.75
2023-01-18T22:25:26.070Z,72.64
2023-01-18T22:27:53.446Z,72.04
2023-01-18T22:30:22.892Z,70.98
2023-01-18T22:32:50.299Z,71.35
2023-01-18T22:35:17.848Z,72.71
2023-01-18T22:37:45.599Z,72.20
2023-01-18T22:40:13.112Z,74.37
2023-01-18T22:42:40.749Z,72.31
2023-01-18T22:45:08.731Z,73.01
2023-01-18T22:47:36.240Z,73.33
2023-01-18T22:50:04.015Z,73.27
2023-01-18T22:52:31.794Z,73.09
2023-01-18T22:54:59.285Z,73.31
2023-01-18T22:57:26.666Z,73.29
2023-01-18T22:59:54.572Z,73.74
2023-01-18T23:02:21.995Z,74.70
2023-01-18T23:04:49.458Z,73.94
2023-01-18T23:07:17.562Z,73.86
2023-01-18T23:09:45.141Z,73.64
2023-01-18T23:12:12.696Z,71.53
2023-01-18T23:14:59.147Z,70.50
2023-01-18T23:17:38.850Z,71.84
2023-01-18T23:20:10.293Z,71.36
2023-01-18T23:22:38.108Z,71.24
2023-01-18T23:25:06.200Z,72.49
2023-01-18T23:27:33.712Z,73.60
2023-01-18T23:30:02.580Z,73.54
2023-01-18T23:32:30.888Z,71.77
2023-01-18T23:34:59.783Z,73.49
2023-01-18T23:37:27.663Z,73.12
2023-01-18T23:40:14.161Z,72.59
2023-01-18T23:43:01.153Z,70.79
2023-01-18T23:45:47.665Z,70.62
2023-01-18T23:48:37.874Z,71.08
2023-01-18T23:51:26.465Z,71.65
2023-01-18T23:54:12.810Z,70.69
2023-01-18T23:56:40.518Z,71.67
2023-01-18T23:59:08.837Z,70.52
